New Richmond Regional Airport
KRNH : now visible

Airfield :











YOU CAN JOIN US ON...

 
LOGIN :

Register | Disclaimer

   EN    FR    IT 

 









Legend :    VFR   Marginal VFR   IFR   Intensive IFR   Very Intensive IFR
Visi :
Ceiling :
>= 8 km
>= 3000ft
5 to 8 km
1000 to 3000 ft
1500m to 5 km
500 to 1000 ft
800 to 1500m
200 to 500 ft
< 800m
< 200 ft
Symbols :   Thunderstorms  Fog  Heavy snow  Heavy precipitations  Wind > 20 kt






- Airport Elevation : 998 ft


KRNH - New Richmond Regional

CURRENT METAR :
  • 270255Z AUTO 21007KT 10SM CLR 26/19 A2993 RMK AO2 T02600186

EXPIRED METARs :
  • 270235Z AUTO 20007KT 10SM CLR 26/19 A2992 RMK AO2 T02610190
  • 270215Z AUTO 20006KT 10SM CLR 27/19 A2993 RMK AO2 T02660191
  • 270155Z AUTO 21005KT 10SM CLR 27/19 A2992 RMK AO2 T02700191
  • 270135Z AUTO 22007KT 10SM CLR 28/19 A2991 RMK AO2 T02750188
  • 270115Z AUTO 22008KT 10SM CLR 28/19 A2991 RMK AO2 T02800186
  • 270055Z AUTO 21010KT 10SM CLR 29/18 A2991 RMK AO2 T02850183
  • 270035Z AUTO 22010G14KT 10SM CLR 29/18 A2992 RMK AO2 T02880180
  • 270015Z AUTO 21011G14KT 10SM CLR 29/18 A2991 RMK AO2 T02940176

TAF KRNH
Valid from the 27 at 00:00 until the 28 at 00:00 UTC


262335Z 2700/2724 20007KT P6SM SCT150
FM270500 18005KT P6SM BKN120
PROB30 2709/2712 -TSRA BKN050CB
FM271200 17004KT P6SM SCT150
KZMP FIR / North America



MET'MAP, your aeronautical weather chart ! - Copyright ORBIFLY December 2007 - Disclaimer

ORBIFLY MET'MAP TEAM :

Programming & Development : Alexandra Zaïnal
Concept & original design : Baudouin d'Aumeries
Assistance for programming : Marc-Olivier Méhu
Technical & hardware support : Manuel Goepfert

Contact : metmap@orbifly.com




SOURCES & CREDITS :

   NOAA       Earth
Advisory